WZZ6308 LHBP-LIMJ
Flight info
| Callsign | WZZ6308 |
|---|---|
| Flight time | 1h 23m |
| Altitude | 38000 |
| Route | GILEP DCT ZOLKU DCT SUBES DCT SUNIS DCT RADLY DCT RIFEN/N0442F370 DCT AKADO DCT NISIL DCT BEROK DCT MIVKI M730 KALMO |
| Aircraft | A321/M-SDE1E2E3FGIJ1J4RWXY/LB1G1 |
Departure
| Time | 2026-05-04 19:58 |
|---|---|
| Airport | Budapest Liszt Ferenc International Airport (LHBP) |
Arrival
| Time | 2026-05-04 21:21 |
|---|---|
| Airport | Genoa Cristoforo Colombo Airport (LIMJ) |
| Time | Latitude | Longitude | Altitude | Speed | Heading |
|---|---|---|---|---|---|
| 2026-05-04 19:11 | 47.43537 | 19.26435 | 455 ft | 0 kts | 222° |
| 2026-05-04 19:41 | 47.43538 | 19.26436 | 458 ft | 1 kts | 222° |
| 2026-05-04 19:41 | 47.43553 | 19.26456 | 456 ft | 4 kts | 229° |
| 2026-05-04 19:41 | 47.43564 | 19.26488 | 455 ft | 4 kts | 275° |
| 2026-05-04 19:42 | 47.43556 | 19.26524 | 456 ft | 4 kts | 304° |
| 2026-05-04 19:42 | 47.43539 | 19.26554 | 456 ft | 4 kts | 313° |
| 2026-05-04 19:42 | 47.43532 | 19.26566 | 456 ft | 0 kts | 312° |
| 2026-05-04 19:43 | 47.43533 | 19.26564 | 457 ft | 1 kts | 312° |
| 2026-05-04 19:43 | 47.43523 | 19.26580 | 453 ft | 2 kts | 312° |
| 2026-05-04 19:43 | 47.43512 | 19.26598 | 455 ft | 2 kts | 312° |
| 2026-05-04 19:44 | 47.43501 | 19.26615 | 454 ft | 2 kts | 312° |
| 2026-05-04 19:44 | 47.43491 | 19.26632 | 455 ft | 0 kts | 312° |
| 2026-05-04 19:44 | 47.43497 | 19.26622 | 455 ft | 2 kts | 312° |
| 2026-05-04 19:44 | 47.43503 | 19.26613 | 457 ft | 0 kts | 312° |
| 2026-05-04 19:45 | 47.43496 | 19.26623 | 455 ft | 0 kts | 312° |
| 2026-05-04 19:45 | 47.43494 | 19.26626 | 455 ft | 2 kts | 312° |
| 2026-05-04 19:45 | 47.43485 | 19.26641 | 457 ft | 0 kts | 312° |
| 2026-05-04 19:48 | 47.43506 | 19.26608 | 457 ft | 10 kts | 312° |
| 2026-05-04 19:48 | 47.43551 | 19.26535 | 456 ft | 10 kts | 312° |
| 2026-05-04 19:48 | 47.43604 | 19.26449 | 458 ft | 12 kts | 312° |
| 2026-05-04 19:49 | 47.43649 | 19.26375 | 458 ft | 10 kts | 313° |
| 2026-05-04 19:49 | 47.43714 | 19.26371 | 458 ft | 11 kts | 38° |
| 2026-05-04 19:49 | 47.43772 | 19.26423 | 458 ft | 10 kts | 8° |
| 2026-05-04 19:49 | 47.43809 | 19.26384 | 458 ft | 4 kts | 310° |
| 2026-05-04 19:50 | 47.43820 | 19.26366 | 458 ft | 0 kts | 313° |
| 2026-05-04 19:51 | 47.43823 | 19.26361 | 458 ft | 3 kts | 313° |
| 2026-05-04 19:51 | 47.43839 | 19.26335 | 458 ft | 0 kts | 312° |
| 2026-05-04 19:52 | 47.43852 | 19.26314 | 458 ft | 7 kts | 312° |
| 2026-05-04 19:53 | 47.43897 | 19.26242 | 458 ft | 11 kts | 313° |
| 2026-05-04 19:53 | 47.43966 | 19.26222 | 459 ft | 10 kts | 24° |
| 2026-05-04 19:53 | 47.43993 | 19.26257 | 460 ft | 0 kts | 43° |
| 2026-05-04 19:54 | 47.43995 | 19.26259 | 460 ft | 1 kts | 43° |
| 2026-05-04 19:54 | 47.43999 | 19.26265 | 460 ft | 0 kts | 43° |
| 2026-05-04 19:56 | 47.44002 | 19.26269 | 460 ft | 3 kts | 43° |
| 2026-05-04 19:56 | 47.44036 | 19.26320 | 463 ft | 7 kts | 49° |
| 2026-05-04 19:56 | 47.44056 | 19.26367 | 466 ft | 5 kts | 63° |
| 2026-05-04 19:57 | 47.44067 | 19.26429 | 470 ft | 6 kts | 85° |
| 2026-05-04 19:57 | 47.44063 | 19.26509 | 468 ft | 11 kts | 105° |
| 2026-05-04 19:57 | 47.44035 | 19.26578 | 470 ft | 1 kts | 136° |
| 2026-05-04 19:57 | 47.44023 | 19.26598 | 468 ft | 7 kts | 133° |
| 2026-05-04 19:58 | 47.43897 | 19.26803 | 471 ft | 62 kts | 133° |
| 2026-05-04 19:58 | 47.43390 | 19.27617 | 467 ft | 148 kts | 132° |
| 2026-05-04 19:58 | 47.42547 | 19.28984 | 683 ft | 200 kts | 132° |
| 2026-05-04 19:58 | 47.41651 | 19.30588 | 1728 ft | 203 kts | 128° |
| 2026-05-04 19:59 | 47.40889 | 19.32456 | 2607 ft | 224 kts | 123° |
| 2026-05-04 19:59 | 47.40123 | 19.34551 | 3170 ft | 239 kts | 121° |
| 2026-05-04 19:59 | 47.39341 | 19.36750 | 4021 ft | 243 kts | 121° |
| 2026-05-04 19:59 | 47.38534 | 19.38949 | 4869 ft | 247 kts | 125° |
| 2026-05-04 20:00 | 47.37252 | 19.40688 | 5332 ft | 260 kts | 159° |
| 2026-05-04 20:00 | 47.35466 | 19.40963 | 6027 ft | 264 kts | 194° |
| 2026-05-04 20:00 | 47.33870 | 19.39637 | 6744 ft | 270 kts | 228° |
| 2026-05-04 20:00 | 47.32922 | 19.37289 | 7523 ft | 274 kts | 246° |
| 2026-05-04 20:01 | 47.32205 | 19.34623 | 8376 ft | 277 kts | 247° |
| 2026-05-04 20:01 | 47.31499 | 19.31976 | 9192 ft | 280 kts | 247° |
| 2026-05-04 20:01 | 47.30784 | 19.29290 | 10029 ft | 283 kts | 247° |
| 2026-05-04 20:01 | 47.30028 | 19.26542 | 10483 ft | 299 kts | 244° |
| 2026-05-04 20:02 | 47.29121 | 19.23662 | 10731 ft | 322 kts | 251° |
| 2026-05-04 20:02 | 47.28836 | 19.20327 | 11274 ft | 333 kts | 266° |
| 2026-05-04 20:02 | 47.28735 | 19.16908 | 11976 ft | 337 kts | 266° |
| 2026-05-04 20:02 | 47.28621 | 19.13431 | 12713 ft | 341 kts | 266° |
| 2026-05-04 20:03 | 47.28493 | 19.09964 | 13433 ft | 345 kts | 265° |
| 2026-05-04 20:03 | 47.28350 | 19.06372 | 14125 ft | 349 kts | 265° |
| 2026-05-04 20:03 | 47.28205 | 19.02830 | 14762 ft | 353 kts | 265° |
| 2026-05-04 20:03 | 47.28053 | 18.99154 | 15416 ft | 356 kts | 265° |
| 2026-05-04 20:04 | 47.27901 | 18.95545 | 16088 ft | 360 kts | 265° |
| 2026-05-04 20:04 | 47.27745 | 18.91849 | 16786 ft | 363 kts | 265° |
| 2026-05-04 20:04 | 47.27588 | 18.88132 | 17462 ft | 366 kts | 265° |
| 2026-05-04 20:04 | 47.27431 | 18.84374 | 17915 ft | 369 kts | 265° |
| 2026-05-04 20:05 | 47.27273 | 18.80606 | 18029 ft | 369 kts | 266° |
| 2026-05-04 20:05 | 47.27115 | 18.76823 | 18135 ft | 373 kts | 265° |
| 2026-05-04 20:05 | 47.26952 | 18.73009 | 18791 ft | 374 kts | 265° |
| 2026-05-04 20:05 | 47.26785 | 18.69187 | 19430 ft | 376 kts | 265° |
| 2026-05-04 20:06 | 47.26613 | 18.65336 | 19996 ft | 379 kts | 266° |
| 2026-05-04 20:06 | 47.26437 | 18.61450 | 20610 ft | 381 kts | 266° |
| 2026-05-04 20:06 | 47.26265 | 18.57544 | 21192 ft | 385 kts | 266° |
| 2026-05-04 20:06 | 47.26093 | 18.53596 | 21792 ft | 388 kts | 266° |
| 2026-05-04 20:07 | 47.25921 | 18.49661 | 22380 ft | 390 kts | 266° |
| 2026-05-04 20:07 | 47.25742 | 18.45612 | 22999 ft | 393 kts | 266° |
| 2026-05-04 20:07 | 47.25560 | 18.41599 | 23551 ft | 396 kts | 266° |
| 2026-05-04 20:07 | 47.25371 | 18.37527 | 24011 ft | 399 kts | 266° |
| 2026-05-04 20:08 | 47.25244 | 18.34824 | 24299 ft | 401 kts | 266° |
| 2026-05-04 20:08 | 47.25049 | 18.30719 | 24754 ft | 404 kts | 266° |
| 2026-05-04 20:08 | 47.24788 | 18.25167 | 25347 ft | 407 kts | 266° |
| 2026-05-04 20:08 | 47.24657 | 18.22399 | 25638 ft | 409 kts | 266° |
| 2026-05-04 20:09 | 47.24456 | 18.18202 | 26074 ft | 412 kts | 266° |
| 2026-05-04 20:09 | 47.24249 | 18.13939 | 26510 ft | 414 kts | 266° |
| 2026-05-04 20:09 | 47.24045 | 18.09749 | 26924 ft | 417 kts | 266° |
| 2026-05-04 20:09 | 47.23834 | 18.05432 | 27345 ft | 419 kts | 267° |
| 2026-05-04 20:10 | 47.23626 | 18.01193 | 27754 ft | 422 kts | 267° |
| 2026-05-04 20:10 | 47.23413 | 17.96886 | 28153 ft | 424 kts | 267° |
| 2026-05-04 20:10 | 47.23197 | 17.92539 | 28544 ft | 427 kts | 267° |
| 2026-05-04 20:10 | 47.22978 | 17.88176 | 28952 ft | 429 kts | 267° |
| 2026-05-04 20:11 | 47.22754 | 17.83780 | 29332 ft | 432 kts | 267° |
| 2026-05-04 20:11 | 47.22525 | 17.79361 | 29695 ft | 435 kts | 267° |
| 2026-05-04 20:11 | 47.22296 | 17.74916 | 30064 ft | 437 kts | 267° |
| 2026-05-04 20:11 | 47.22066 | 17.70469 | 30392 ft | 439 kts | 267° |
| 2026-05-04 20:12 | 47.21831 | 17.65961 | 30704 ft | 441 kts | 267° |
| 2026-05-04 20:12 | 47.21595 | 17.61450 | 31034 ft | 444 kts | 267° |
| 2026-05-04 20:12 | 47.21357 | 17.56908 | 31369 ft | 445 kts | 266° |
| 2026-05-04 20:12 | 47.21113 | 17.52358 | 31714 ft | 447 kts | 266° |
| 2026-05-04 20:13 | 47.20868 | 17.47805 | 32173 ft | 446 kts | 266° |
| 2026-05-04 20:13 | 47.20622 | 17.43276 | 32666 ft | 444 kts | 266° |
| 2026-05-04 20:13 | 47.20374 | 17.38768 | 33151 ft | 442 kts | 266° |
| 2026-05-04 20:13 | 47.20125 | 17.34275 | 33634 ft | 440 kts | 266° |
| 2026-05-04 20:14 | 47.19876 | 17.29805 | 34091 ft | 438 kts | 266° |
| 2026-05-04 20:14 | 47.19625 | 17.25352 | 34489 ft | 437 kts | 266° |
| 2026-05-04 20:14 | 47.19373 | 17.20918 | 34870 ft | 435 kts | 266° |
| 2026-05-04 20:14 | 47.19119 | 17.16475 | 35252 ft | 434 kts | 266° |
| 2026-05-04 20:15 | 47.18867 | 17.12065 | 35649 ft | 433 kts | 266° |
| 2026-05-04 20:15 | 47.18617 | 17.07681 | 36049 ft | 431 kts | 266° |
| 2026-05-04 20:15 | 47.18365 | 17.03282 | 36417 ft | 430 kts | 266° |
| 2026-05-04 20:15 | 47.18112 | 16.98919 | 36778 ft | 429 kts | 266° |
| 2026-05-04 20:16 | 47.17854 | 16.94556 | 37128 ft | 428 kts | 265° |
| 2026-05-04 20:16 | 47.17599 | 16.90256 | 37438 ft | 427 kts | 265° |
| 2026-05-04 20:16 | 47.17338 | 16.85856 | 37756 ft | 426 kts | 265° |
| 2026-05-04 20:16 | 47.17079 | 16.81561 | 37947 ft | 427 kts | 265° |
| 2026-05-04 20:17 | 47.16816 | 16.77224 | 37981 ft | 425 kts | 265° |
| 2026-05-04 20:17 | 47.16293 | 16.68508 | 37976 ft | 424 kts | 265° |
| 2026-05-04 20:18 | 47.15773 | 16.59939 | 37983 ft | 424 kts | 265° |
| 2026-05-04 20:18 | 47.15235 | 16.51313 | 37983 ft | 424 kts | 265° |
| 2026-05-04 20:19 | 47.14680 | 16.42687 | 37985 ft | 424 kts | 265° |
| 2026-05-04 20:19 | 47.13483 | 16.34226 | 37986 ft | 426 kts | 249° |
| 2026-05-04 20:20 | 47.10627 | 16.26620 | 37991 ft | 428 kts | 239° |
| 2026-05-04 20:20 | 47.07460 | 16.19224 | 37992 ft | 428 kts | 239° |
| 2026-05-04 20:21 | 47.04295 | 16.11815 | 37989 ft | 429 kts | 239° |
| 2026-05-04 20:21 | 46.99535 | 16.00704 | 37998 ft | 429 kts | 239° |
| 2026-05-04 20:22 | 46.96350 | 15.93315 | 38001 ft | 429 kts | 239° |
| 2026-05-04 20:22 | 46.93156 | 15.85944 | 38006 ft | 429 kts | 239° |
| 2026-05-04 20:23 | 46.89953 | 15.78556 | 38005 ft | 429 kts | 239° |
| 2026-05-04 20:23 | 46.86753 | 15.71188 | 38011 ft | 430 kts | 239° |
| 2026-05-04 20:24 | 46.83544 | 15.63827 | 38013 ft | 429 kts | 239° |
| 2026-05-04 20:24 | 46.80337 | 15.56479 | 38018 ft | 429 kts | 238° |
| 2026-05-04 20:25 | 46.77126 | 15.49142 | 38017 ft | 429 kts | 238° |
| 2026-05-04 20:25 | 46.73929 | 15.41854 | 38023 ft | 429 kts | 239° |
| 2026-05-04 20:26 | 46.70712 | 15.34537 | 38025 ft | 429 kts | 238° |
| 2026-05-04 20:26 | 46.67482 | 15.27228 | 38039 ft | 429 kts | 238° |
| 2026-05-04 20:27 | 46.64249 | 15.19937 | 38047 ft | 429 kts | 238° |
| 2026-05-04 20:27 | 46.60891 | 15.12772 | 38052 ft | 429 kts | 236° |
| 2026-05-04 20:28 | 46.57433 | 15.05704 | 38053 ft | 428 kts | 236° |
| 2026-05-04 20:28 | 46.53998 | 14.98655 | 38069 ft | 428 kts | 236° |
| 2026-05-04 20:29 | 46.50595 | 14.91588 | 38069 ft | 427 kts | 236° |
| 2026-05-04 20:29 | 46.47199 | 14.84529 | 38081 ft | 427 kts | 236° |
| 2026-05-04 20:30 | 46.43788 | 14.77482 | 38078 ft | 426 kts | 236° |
| 2026-05-04 20:30 | 46.40383 | 14.70461 | 38099 ft | 426 kts | 237° |
| 2026-05-04 20:31 | 46.36985 | 14.63469 | 38099 ft | 423 kts | 236° |
| 2026-05-04 20:31 | 46.33585 | 14.56495 | 38107 ft | 423 kts | 236° |
| 2026-05-04 20:32 | 46.30180 | 14.49539 | 38097 ft | 425 kts | 236° |
| 2026-05-04 20:32 | 46.26760 | 14.42573 | 38096 ft | 425 kts | 236° |
| 2026-05-04 20:33 | 46.23334 | 14.35596 | 38091 ft | 426 kts | 236° |
| 2026-05-04 20:33 | 46.19904 | 14.28633 | 38099 ft | 426 kts | 236° |
| 2026-05-04 20:34 | 46.16462 | 14.21665 | 38107 ft | 426 kts | 236° |
| 2026-05-04 20:34 | 46.13019 | 14.14703 | 38111 ft | 426 kts | 236° |
| 2026-05-04 20:35 | 46.09570 | 14.07753 | 38110 ft | 426 kts | 236° |
| 2026-05-04 20:35 | 46.06123 | 14.00841 | 38138 ft | 425 kts | 236° |
| 2026-05-04 20:36 | 46.02676 | 13.93943 | 38132 ft | 424 kts | 236° |
| 2026-05-04 20:36 | 45.99235 | 13.87069 | 38128 ft | 423 kts | 236° |
| 2026-05-04 20:37 | 45.95802 | 13.80217 | 38132 ft | 422 kts | 236° |
| 2026-05-04 20:37 | 45.92368 | 13.73378 | 38132 ft | 422 kts | 236° |
| 2026-05-04 20:38 | 45.88939 | 13.66558 | 38129 ft | 421 kts | 236° |
| 2026-05-04 20:38 | 45.85501 | 13.59748 | 38132 ft | 421 kts | 236° |
| 2026-05-04 20:39 | 45.82147 | 13.52863 | 38133 ft | 421 kts | 238° |
| 2026-05-04 20:39 | 45.78926 | 13.45863 | 38132 ft | 420 kts | 238° |
| 2026-05-04 20:40 | 45.75709 | 13.38868 | 38127 ft | 421 kts | 238° |
| 2026-05-04 20:40 | 45.72454 | 13.31917 | 38122 ft | 421 kts | 237° |
| 2026-05-04 20:41 | 45.69165 | 13.24968 | 38094 ft | 421 kts | 237° |
| 2026-05-04 20:41 | 45.65893 | 13.18049 | 38091 ft | 421 kts | 237° |
| 2026-05-04 20:42 | 45.62637 | 13.11169 | 38089 ft | 421 kts | 237° |
| 2026-05-04 20:42 | 45.59338 | 13.04220 | 38077 ft | 420 kts | 237° |
| 2026-05-04 20:43 | 45.56068 | 12.97348 | 38085 ft | 420 kts | 237° |
| 2026-05-04 20:43 | 45.52765 | 12.90414 | 38092 ft | 420 kts | 237° |
| 2026-05-04 20:44 | 45.49471 | 12.83532 | 38088 ft | 420 kts | 237° |
| 2026-05-04 20:44 | 45.46174 | 12.76650 | 38089 ft | 420 kts | 237° |
| 2026-05-04 20:45 | 45.42885 | 12.69799 | 38087 ft | 419 kts | 237° |
| 2026-05-04 20:45 | 45.39612 | 12.63003 | 38094 ft | 419 kts | 237° |
| 2026-05-04 20:46 | 45.36311 | 12.56166 | 38093 ft | 418 kts | 237° |
| 2026-05-04 20:46 | 45.33195 | 12.49214 | 38093 ft | 416 kts | 246° |
| 2026-05-04 20:47 | 45.31142 | 12.41565 | 38105 ft | 415 kts | 250° |
| 2026-05-04 20:47 | 45.29126 | 12.33893 | 38088 ft | 414 kts | 250° |
| 2026-05-04 20:48 | 45.27092 | 12.26254 | 38092 ft | 413 kts | 250° |
| 2026-05-04 20:48 | 45.25073 | 12.18622 | 38080 ft | 412 kts | 250° |
| 2026-05-04 20:49 | 45.23066 | 12.11000 | 38081 ft | 412 kts | 250° |
| 2026-05-04 20:49 | 45.21055 | 12.03406 | 38087 ft | 412 kts | 250° |
| 2026-05-04 20:50 | 45.19039 | 11.95857 | 38092 ft | 412 kts | 250° |
| 2026-05-04 20:50 | 45.16992 | 11.88228 | 38096 ft | 412 kts | 250° |
| 2026-05-04 20:51 | 45.14958 | 11.80647 | 38087 ft | 411 kts | 250° |
| 2026-05-04 20:51 | 45.12922 | 11.73102 | 38118 ft | 410 kts | 250° |
| 2026-05-04 20:52 | 45.10885 | 11.65570 | 38104 ft | 409 kts | 250° |
| 2026-05-04 20:52 | 45.08856 | 11.58094 | 38107 ft | 409 kts | 250° |
| 2026-05-04 20:53 | 45.06816 | 11.50580 | 38112 ft | 409 kts | 250° |
| 2026-05-04 20:53 | 45.05103 | 11.44291 | 38107 ft | 409 kts | 250° |
| 2026-05-04 20:54 | 45.03053 | 11.36806 | 38114 ft | 409 kts | 250° |
| 2026-05-04 20:54 | 45.00984 | 11.29284 | 38073 ft | 409 kts | 250° |
| 2026-05-04 20:55 | 44.99926 | 11.25574 | 37783 ft | 407 kts | 246° |
| 2026-05-04 20:55 | 44.98552 | 11.22068 | 37502 ft | 407 kts | 238° |
| 2026-05-04 20:55 | 44.96824 | 11.18916 | 37223 ft | 409 kts | 230° |
| 2026-05-04 20:55 | 44.94749 | 11.16143 | 36981 ft | 413 kts | 221° |
| 2026-05-04 20:56 | 44.92441 | 11.13702 | 36719 ft | 414 kts | 220° |
| 2026-05-04 20:56 | 44.90127 | 11.11281 | 36461 ft | 415 kts | 220° |
| 2026-05-04 20:56 | 44.87806 | 11.08846 | 36208 ft | 415 kts | 220° |
| 2026-05-04 20:56 | 44.85494 | 11.06416 | 35954 ft | 416 kts | 220° |
| 2026-05-04 20:57 | 44.83177 | 11.03980 | 35699 ft | 413 kts | 220° |
| 2026-05-04 20:57 | 44.80885 | 11.01573 | 35448 ft | 409 kts | 220° |
| 2026-05-04 20:57 | 44.78622 | 10.99204 | 35203 ft | 406 kts | 220° |
| 2026-05-04 20:57 | 44.76347 | 10.96829 | 34974 ft | 404 kts | 220° |
| 2026-05-04 20:58 | 44.74100 | 10.94490 | 34727 ft | 402 kts | 220° |
| 2026-05-04 20:58 | 44.71855 | 10.92152 | 34485 ft | 400 kts | 220° |
| 2026-05-04 20:58 | 44.69644 | 10.89850 | 34261 ft | 398 kts | 220° |
| 2026-05-04 20:58 | 44.67434 | 10.87550 | 34013 ft | 396 kts | 221° |
| 2026-05-04 20:59 | 44.65204 | 10.85228 | 33723 ft | 392 kts | 220° |
| 2026-05-04 20:59 | 44.63044 | 10.82980 | 33477 ft | 388 kts | 220° |
| 2026-05-04 20:59 | 44.60930 | 10.80784 | 33020 ft | 384 kts | 220° |
| 2026-05-04 20:59 | 44.58755 | 10.78532 | 32528 ft | 381 kts | 220° |
| 2026-05-04 21:00 | 44.56625 | 10.76329 | 32060 ft | 378 kts | 220° |
| 2026-05-04 21:00 | 44.54524 | 10.74156 | 31599 ft | 376 kts | 220° |
| 2026-05-04 21:00 | 44.52418 | 10.71979 | 31118 ft | 373 kts | 220° |
| 2026-05-04 21:00 | 44.50339 | 10.69826 | 30666 ft | 372 kts | 220° |
| 2026-05-04 21:01 | 44.48266 | 10.67681 | 30211 ft | 370 kts | 219° |
| 2026-05-04 21:01 | 44.46202 | 10.65549 | 29724 ft | 367 kts | 219° |
| 2026-05-04 21:01 | 44.44140 | 10.63425 | 29279 ft | 365 kts | 219° |
| 2026-05-04 21:01 | 44.42110 | 10.61337 | 28853 ft | 362 kts | 219° |
| 2026-05-04 21:02 | 44.40091 | 10.59261 | 28432 ft | 360 kts | 219° |
| 2026-05-04 21:02 | 44.38079 | 10.57193 | 28026 ft | 357 kts | 218° |
| 2026-05-04 21:02 | 44.36082 | 10.55143 | 27604 ft | 355 kts | 218° |
| 2026-05-04 21:02 | 44.34102 | 10.53110 | 27215 ft | 353 kts | 218° |
| 2026-05-04 21:03 | 44.32122 | 10.51080 | 26817 ft | 350 kts | 218° |
| 2026-05-04 21:03 | 44.30173 | 10.49081 | 26428 ft | 347 kts | 218° |
| 2026-05-04 21:03 | 44.28239 | 10.47098 | 25784 ft | 352 kts | 217° |
| 2026-05-04 21:03 | 44.26212 | 10.45026 | 24880 ft | 364 kts | 217° |
| 2026-05-04 21:04 | 44.24135 | 10.42905 | 23955 ft | 378 kts | 216° |
| 2026-05-04 21:04 | 44.22006 | 10.40731 | 22792 ft | 378 kts | 217° |
| 2026-05-04 21:04 | 44.19943 | 10.38484 | 21469 ft | 375 kts | 225° |
| 2026-05-04 21:04 | 44.18425 | 10.35565 | 20221 ft | 372 kts | 245° |
| 2026-05-04 21:05 | 44.17704 | 10.32145 | 19013 ft | 369 kts | 263° |
| 2026-05-04 21:05 | 44.17796 | 10.28616 | 17778 ft | 367 kts | 281° |
| 2026-05-04 21:05 | 44.18522 | 10.25196 | 17300 ft | 362 kts | 285° |
| 2026-05-04 21:05 | 44.19219 | 10.21958 | 17038 ft | 352 kts | 285° |
| 2026-05-04 21:06 | 44.19904 | 10.18674 | 16779 ft | 342 kts | 284° |
| 2026-05-04 21:06 | 44.20551 | 10.15530 | 16518 ft | 332 kts | 284° |
| 2026-05-04 21:06 | 44.21182 | 10.12464 | 16254 ft | 324 kts | 284° |
| 2026-05-04 21:06 | 44.21801 | 10.09475 | 16004 ft | 320 kts | 284° |
| 2026-05-04 21:07 | 44.22415 | 10.06515 | 15754 ft | 318 kts | 284° |
| 2026-05-04 21:07 | 44.23031 | 10.03551 | 15509 ft | 317 kts | 284° |
| 2026-05-04 21:07 | 44.23644 | 10.00613 | 15272 ft | 313 kts | 284° |
| 2026-05-04 21:07 | 44.24242 | 9.97755 | 14935 ft | 309 kts | 284° |
| 2026-05-04 21:08 | 44.24835 | 9.94917 | 14567 ft | 307 kts | 284° |
| 2026-05-04 21:08 | 44.25441 | 9.92002 | 14192 ft | 305 kts | 284° |
| 2026-05-04 21:08 | 44.26030 | 9.89168 | 13811 ft | 304 kts | 284° |
| 2026-05-04 21:08 | 44.26616 | 9.86342 | 13424 ft | 301 kts | 284° |
| 2026-05-04 21:09 | 44.27194 | 9.83560 | 13067 ft | 298 kts | 284° |
| 2026-05-04 21:09 | 44.27768 | 9.80797 | 12711 ft | 296 kts | 284° |
| 2026-05-04 21:09 | 44.28325 | 9.78109 | 12362 ft | 294 kts | 282° |
| 2026-05-04 21:09 | 44.28903 | 9.75319 | 11996 ft | 292 kts | 282° |
| 2026-05-04 21:10 | 44.29462 | 9.72605 | 11646 ft | 290 kts | 284° |
| 2026-05-04 21:10 | 44.30016 | 9.69909 | 11293 ft | 289 kts | 283° |
| 2026-05-04 21:10 | 44.30569 | 9.67209 | 11097 ft | 291 kts | 283° |
| 2026-05-04 21:10 | 44.31125 | 9.64492 | 11111 ft | 294 kts | 282° |
| 2026-05-04 21:11 | 44.31685 | 9.61736 | 11103 ft | 294 kts | 281° |
| 2026-05-04 21:11 | 44.31996 | 9.58939 | 10689 ft | 293 kts | 269° |
| 2026-05-04 21:11 | 44.31829 | 9.56072 | 10023 ft | 296 kts | 259° |
| 2026-05-04 21:11 | 44.31514 | 9.53269 | 9222 ft | 290 kts | 259° |
| 2026-05-04 21:12 | 44.31210 | 9.50519 | 8567 ft | 281 kts | 258° |
| 2026-05-04 21:12 | 44.30931 | 9.47928 | 8387 ft | 259 kts | 257° |
| 2026-05-04 21:12 | 44.30668 | 9.45477 | 8092 ft | 258 kts | 258° |
| 2026-05-04 21:12 | 44.30396 | 9.42999 | 7770 ft | 259 kts | 258° |
| 2026-05-04 21:13 | 44.30118 | 9.40495 | 7367 ft | 262 kts | 258° |
| 2026-05-04 21:13 | 44.29841 | 9.37971 | 7030 ft | 263 kts | 258° |
| 2026-05-04 21:13 | 44.29556 | 9.35397 | 6723 ft | 269 kts | 257° |
| 2026-05-04 21:13 | 44.29280 | 9.32871 | 6649 ft | 257 kts | 257° |
| 2026-05-04 21:14 | 44.29019 | 9.30464 | 6591 ft | 244 kts | 257° |
| 2026-05-04 21:14 | 44.28767 | 9.28155 | 6381 ft | 239 kts | 257° |
| 2026-05-04 21:14 | 44.28767 | 9.25854 | 6120 ft | 239 kts | 279° |
| 2026-05-04 21:14 | 44.29411 | 9.23719 | 5752 ft | 243 kts | 304° |
| 2026-05-04 21:15 | 44.30632 | 9.22080 | 5391 ft | 245 kts | 323° |
| 2026-05-04 21:15 | 44.31993 | 9.20663 | 5051 ft | 243 kts | 323° |
| 2026-05-04 21:15 | 44.33212 | 9.19183 | 4938 ft | 228 kts | 309° |
| 2026-05-04 21:15 | 44.34035 | 9.17313 | 4829 ft | 221 kts | 289° |
| 2026-05-04 21:16 | 44.34484 | 9.15350 | 4593 ft | 206 kts | 285° |
| 2026-05-04 21:16 | 44.34910 | 9.13486 | 4296 ft | 198 kts | 285° |
| 2026-05-04 21:16 | 44.35304 | 9.11712 | 4041 ft | 181 kts | 285° |
| 2026-05-04 21:16 | 44.35651 | 9.10122 | 3786 ft | 162 kts | 285° |
| 2026-05-04 21:17 | 44.35971 | 9.08648 | 3573 ft | 156 kts | 285° |
| 2026-05-04 21:17 | 44.36284 | 9.07205 | 3355 ft | 155 kts | 286° |
| 2026-05-04 21:17 | 44.36590 | 9.05792 | 3143 ft | 153 kts | 286° |
| 2026-05-04 21:17 | 44.36901 | 9.04359 | 2924 ft | 152 kts | 286° |
| 2026-05-04 21:18 | 44.37203 | 9.02963 | 2713 ft | 151 kts | 286° |
| 2026-05-04 21:18 | 44.37530 | 9.01561 | 2508 ft | 149 kts | 290° |
| 2026-05-04 21:18 | 44.37880 | 9.00217 | 2299 ft | 149 kts | 285° |
| 2026-05-04 21:18 | 44.38141 | 8.98817 | 2088 ft | 148 kts | 284° |
| 2026-05-04 21:19 | 44.38416 | 8.97443 | 1870 ft | 148 kts | 285° |
| 2026-05-04 21:19 | 44.38707 | 8.96049 | 1657 ft | 146 kts | 286° |
| 2026-05-04 21:19 | 44.39029 | 8.94715 | 1378 ft | 148 kts | 290° |
| 2026-05-04 21:19 | 44.39398 | 8.93373 | 1169 ft | 147 kts | 289° |
| 2026-05-04 21:20 | 44.39647 | 8.92006 | 1025 ft | 145 kts | 283° |
| 2026-05-04 21:20 | 44.39922 | 8.90651 | 859 ft | 145 kts | 285° |
| 2026-05-04 21:20 | 44.40218 | 8.89299 | 595 ft | 145 kts | 285° |
| 2026-05-04 21:20 | 44.40477 | 8.87939 | 393 ft | 145 kts | 282° |
| 2026-05-04 21:21 | 44.40744 | 8.86567 | 172 ft | 147 kts | 283° |
| 2026-05-04 21:21 | 44.41016 | 8.85209 | 27 ft | 140 kts | 285° |
| 2026-05-04 21:21 | 44.41211 | 8.84105 | 22 ft | 90 kts | 285° |
| 2026-05-04 21:21 | 44.41331 | 8.83530 | 22 ft | 41 kts | 286° |
| 2026-05-04 21:22 | 44.41395 | 8.83210 | 21 ft | 24 kts | 291° |
| 2026-05-04 21:22 | 44.41503 | 8.83093 | 21 ft | 10 kts | 5° |
| 2026-05-04 21:22 | 44.41548 | 8.83165 | 23 ft | 11 kts | 85° |
| 2026-05-04 21:22 | 44.41527 | 8.83264 | 23 ft | 12 kts | 102° |
| 2026-05-04 21:23 | 44.41504 | 8.83394 | 20 ft | 15 kts | 104° |
| 2026-05-04 21:23 | 44.41474 | 8.83542 | 20 ft | 17 kts | 105° |
| 2026-05-04 21:23 | 44.41441 | 8.83711 | 22 ft | 19 kts | 105° |
| 2026-05-04 21:23 | 44.41416 | 8.83837 | 20 ft | 10 kts | 105° |
| 2026-05-04 21:24 | 44.41395 | 8.83947 | 22 ft | 13 kts | 105° |
| 2026-05-04 21:24 | 44.41369 | 8.84078 | 21 ft | 15 kts | 105° |
| 2026-05-04 21:24 | 44.41340 | 8.84229 | 20 ft | 13 kts | 105° |
| 2026-05-04 21:24 | 44.41317 | 8.84343 | 20 ft | 10 kts | 105° |
| 2026-05-04 21:25 | 44.41334 | 8.84441 | 22 ft | 12 kts | 52° |
| 2026-05-04 21:25 | 44.41389 | 8.84541 | 20 ft | 14 kts | 52° |
| 2026-05-04 21:25 | 44.41407 | 8.84669 | 20 ft | 14 kts | 107° |
| 2026-05-04 21:25 | 44.41378 | 8.84813 | 20 ft | 17 kts | 104° |
| 2026-05-04 21:26 | 44.41352 | 8.84958 | 21 ft | 14 kts | 103° |
| 2026-05-04 21:26 | 44.41331 | 8.85072 | 20 ft | 12 kts | 105° |
| 2026-05-04 21:26 | 44.41318 | 8.85141 | 20 ft | 2 kts | 105° |
| 2026-05-04 21:26 | 44.41314 | 8.85176 | 20 ft | 5 kts | 84° |
| 2026-05-04 21:27 | 44.41328 | 8.85192 | 22 ft | 1 kts | 16° |
| 2026-05-04 21:27 | 44.41344 | 8.85199 | 20 ft | 4 kts | 16° |
| 2026-05-04 21:27 | 44.41351 | 8.85201 | 20 ft | 0 kts | 15° |
| 2026-05-04 21:27 | 44.41358 | 8.85204 | 20 ft | 1 kts | 15° |
| 2026-05-04 21:28 | 44.41365 | 8.85207 | 20 ft | 0 kts | 15° |
| 2026-05-04 21:28 | 44.41366 | 8.85207 | 20 ft | 0 kts | 15° |